sensor_id;sensor_type;location;lat;lon;timestamp;pressure;altitude;pressure_sealevel;temperature
69545;BMP180;56766;52.260;20.746;2022-07-23T00:01:23;100482.00;;;18.40
69545;BMP180;56766;52.260;20.746;2022-07-23T00:03:50;100485.40;;;18.40
69545;BMP180;56766;52.260;20.746;2022-07-23T00:06:18;100488.00;;;18.40
69545;BMP180;56766;52.260;20.746;2022-07-23T00:08:45;100487.00;;;18.40
69545;BMP180;56766;52.260;20.746;2022-07-23T00:11:12;100488.40;;;18.50
69545;BMP180;56766;52.260;20.746;2022-07-23T00:13:39;100486.40;;;18.50
69545;BMP180;56766;52.260;20.746;2022-07-23T00:16:06;100491.20;;;18.40
69545;BMP180;56766;52.260;20.746;2022-07-23T00:18:33;100484.20;;;18.40
69545;BMP180;56766;52.260;20.746;2022-07-23T00:20:59;100489.20;;;18.30
69545;BMP180;56766;52.260;20.746;2022-07-23T00:23:26;100492.60;;;18.30
69545;BMP180;56766;52.260;20.746;2022-07-23T00:25:55;100492.00;;;18.22
69545;BMP180;56766;52.260;20.746;2022-07-23T00:28:22;100494.00;;;18.20
69545;BMP180;56766;52.260;20.746;2022-07-23T00:30:48;100492.40;;;18.20
69545;BMP180;56766;52.260;20.746;2022-07-23T00:33:15;100500.00;;;18.20
69545;BMP180;56766;52.260;20.746;2022-07-23T00:35:42;100501.20;;;18.20
69545;BMP180;56766;52.260;20.746;2022-07-23T00:38:10;100501.80;;;18.26
69545;BMP180;56766;52.260;20.746;2022-07-23T00:40:39;100499.80;;;18.20
69545;BMP180;56766;52.260;20.746;2022-07-23T00:43:07;100494.40;;;18.20
69545;BMP180;56766;52.260;20.746;2022-07-23T00:45:33;100494.20;;;18.30
69545;BMP180;56766;52.260;20.746;2022-07-23T00:48:00;100496.80;;;18.30
69545;BMP180;56766;52.260;20.746;2022-07-23T00:50:29;100492.60;;;18.30
69545;BMP180;56766;52.260;20.746;2022-07-23T00:52:56;100493.60;;;18.30
69545;BMP180;56766;52.260;20.746;2022-07-23T00:55:23;100493.20;;;18.30
69545;BMP180;56766;52.260;20.746;2022-07-23T00:57:51;100494.40;;;18.20
69545;BMP180;56766;52.260;20.746;2022-07-23T01:00:19;100496.40;;;18.10
69545;BMP180;56766;52.260;20.746;2022-07-23T01:02:46;100497.80;;;18.08
69545;BMP180;56766;52.260;20.746;2022-07-23T01:05:13;100490.80;;;18.10
69545;BMP180;56766;52.260;20.746;2022-07-23T01:07:40;100490.80;;;18.10
69545;BMP180;56766;52.260;20.746;2022-07-23T01:10:08;100494.40;;;18.06
69545;BMP180;56766;52.260;20.746;2022-07-23T01:12:55;100499.80;;;18.00
69545;BMP180;56766;52.260;20.746;2022-07-23T01:15:21;100497.20;;;17.90
69545;BMP180;56766;52.260;20.746;2022-07-23T01:17:50;100502.40;;;17.90
69545;BMP180;56766;52.260;20.746;2022-07-23T01:20:17;100504.40;;;17.80
69545;BMP180;56766;52.260;20.746;2022-07-23T01:22:44;100502.40;;;17.74
69545;BMP180;56766;52.260;20.746;2022-07-23T01:25:13;100504.40;;;17.78
69545;BMP180;56766;52.260;20.746;2022-07-23T01:27:39;100510.20;;;17.80
69545;BMP180;56766;52.260;20.746;2022-07-23T01:30:08;100513.80;;;17.80
69545;BMP180;56766;52.260;20.746;2022-07-23T01:32:35;100509.20;;;17.90
69545;BMP180;56766;52.260;20.746;2022-07-23T01:35:02;100510.60;;;17.90
69545;BMP180;56766;52.260;20.746;2022-07-23T01:37:29;100504.80;;;17.90
69545;BMP180;56766;52.260;20.746;2022-07-23T01:39:56;100501.80;;;17.90
69545;BMP180;56766;52.260;20.746;2022-07-23T01:42:22;100496.00;;;18.00
69545;BMP180;56766;52.260;20.746;2022-07-23T01:44:49;100502.00;;;18.00
69545;BMP180;56766;52.260;20.746;2022-07-23T01:47:17;100496.60;;;18.06
69545;BMP180;56766;52.260;20.746;2022-07-23T01:49:43;100494.60;;;18.10
69545;BMP180;56766;52.260;20.746;2022-07-23T01:52:10;100492.40;;;18.10
69545;BMP180;56766;52.260;20.746;2022-07-23T01:54:38;100490.80;;;18.10
69545;BMP180;56766;52.260;20.746;2022-07-23T01:57:07;100486.60;;;18.12
69545;BMP180;56766;52.260;20.746;2022-07-23T01:59:35;100487.60;;;18.20
69545;BMP180;56766;52.260;20.746;2022-07-23T02:02:02;100493.00;;;18.20
69545;BMP180;56766;52.260;20.746;2022-07-23T02:04:32;100487.80;;;18.20
69545;BMP180;56766;52.260;20.746;2022-07-23T02:07:04;100488.40;;;18.20
69545;BMP180;56766;52.260;20.746;2022-07-23T02:09:31;100481.20;;;18.20
69545;BMP180;56766;52.260;20.746;2022-07-23T02:11:58;100478.00;;;18.20
69545;BMP180;56766;52.260;20.746;2022-07-23T02:14:26;100478.60;;;18.16
69545;BMP180;56766;52.260;20.746;2022-07-23T02:16:53;100483.60;;;18.10
69545;BMP180;56766;52.260;20.746;2022-07-23T02:19:20;100479.40;;;18.10
69545;BMP180;56766;52.260;20.746;2022-07-23T02:21:47;100478.20;;;18.00
69545;BMP180;56766;52.260;20.746;2022-07-23T02:24:15;100479.20;;;18.00
69545;BMP180;56766;52.260;20.746;2022-07-23T02:26:43;100479.00;;;18.00
69545;BMP180;56766;52.260;20.746;2022-07-23T02:29:09;100478.00;;;18.00
69545;BMP180;56766;52.260;20.746;2022-07-23T02:31:36;100478.60;;;18.00
69545;BMP180;56766;52.260;20.746;2022-07-23T02:34:03;100475.20;;;18.00
69545;BMP180;56766;52.260;20.746;2022-07-23T02:36:30;100473.40;;;18.00
69545;BMP180;56766;52.260;20.746;2022-07-23T02:38:57;100471.00;;;17.98
69545;BMP180;56766;52.260;20.746;2022-07-23T02:41:24;100469.40;;;17.90
69545;BMP180;56766;52.260;20.746;2022-07-23T02:43:51;100466.80;;;17.90
69545;BMP180;56766;52.260;20.746;2022-07-23T02:46:18;100462.80;;;17.90
69545;BMP180;56766;52.260;20.746;2022-07-23T02:48:44;100462.20;;;17.90
69545;BMP180;56766;52.260;20.746;2022-07-23T02:51:11;100468.40;;;17.86
69545;BMP180;56766;52.260;20.746;2022-07-23T02:53:37;100459.80;;;17.80
69545;BMP180;56766;52.260;20.746;2022-07-23T02:56:04;100463.60;;;17.80
69545;BMP180;56766;52.260;20.746;2022-07-23T02:58:31;100467.60;;;17.70
69545;BMP180;56766;52.260;20.746;2022-07-23T03:00:57;100465.80;;;17.70
69545;BMP180;56766;52.260;20.746;2022-07-23T03:03:24;100469.00;;;17.70
69545;BMP180;56766;52.260;20.746;2022-07-23T03:05:51;100469.60;;;17.70
69545;BMP180;56766;52.260;20.746;2022-07-23T03:08:17;100467.40;;;17.64
69545;BMP180;56766;52.260;20.746;2022-07-23T03:10:44;100468.80;;;17.70
69545;BMP180;56766;52.260;20.746;2022-07-23T03:13:11;100466.40;;;17.70
69545;BMP180;56766;52.260;20.746;2022-07-23T03:15:37;100469.00;;;17.72
69545;BMP180;56766;52.260;20.746;2022-07-23T03:18:04;100468.40;;;17.80
69545;BMP180;56766;52.260;20.746;2022-07-23T03:20:31;100473.80;;;17.80
69545;BMP180;56766;52.260;20.746;2022-07-23T03:22:57;100474.20;;;17.82
69545;BMP180;56766;52.260;20.746;2022-07-23T03:25:24;100471.20;;;17.90
69545;BMP180;56766;52.260;20.746;2022-07-23T03:27:51;100471.20;;;17.90
69545;BMP180;56766;52.260;20.746;2022-07-23T03:30:17;100471.20;;;17.90
69545;BMP180;56766;52.260;20.746;2022-07-23T03:32:44;100470.80;;;18.00
69545;BMP180;56766;52.260;20.746;2022-07-23T03:35:11;100475.40;;;18.00
69545;BMP180;56766;52.260;20.746;2022-07-23T03:37:38;100472.20;;;18.16
69545;BMP180;56766;52.260;20.746;2022-07-23T03:40:05;100476.40;;;18.50
69545;BMP180;56766;52.260;20.746;2022-07-23T03:42:32;100482.20;;;18.80
69545;BMP180;56766;52.260;20.746;2022-07-23T03:44:59;100484.40;;;18.84
69545;BMP180;56766;52.260;20.746;2022-07-23T03:47:25;100486.80;;;18.86
69545;BMP180;56766;52.260;20.746;2022-07-23T03:49:52;100482.20;;;18.88
69545;BMP180;56766;52.260;20.746;2022-07-23T03:52:19;100487.60;;;18.90
69545;BMP180;56766;52.260;20.746;2022-07-23T03:54:45;100491.40;;;18.90
69545;BMP180;56766;52.260;20.746;2022-07-23T03:57:12;100488.20;;;19.00
69545;BMP180;56766;52.260;20.746;2022-07-23T03:59:38;100485.40;;;19.10
69545;BMP180;56766;52.260;20.746;2022-07-23T04:02:05;100480.20;;;19.18
69545;BMP180;56766;52.260;20.746;2022-07-23T04:04:32;100477.40;;;19.20
69545;BMP180;56766;52.260;20.746;2022-07-23T04:06:59;100477.20;;;19.28
69545;BMP180;56766;52.260;20.746;2022-07-23T04:09:25;100478.20;;;19.30
69545;BMP180;56766;52.260;20.746;2022-07-23T04:11:52;100478.80;;;19.40
69545;BMP180;56766;52.260;20.746;2022-07-23T04:14:18;100472.80;;;19.40
69545;BMP180;56766;52.260;20.746;2022-07-23T04:16:45;100470.20;;;19.50
69545;BMP180;56766;52.260;20.746;2022-07-23T04:19:11;100469.40;;;19.60
69545;BMP180;56766;52.260;20.746;2022-07-23T04:21:38;100473.60;;;19.70
69545;BMP180;56766;52.260;20.746;2022-07-23T04:24:05;100474.80;;;19.70
69545;BMP180;56766;52.260;20.746;2022-07-23T04:26:32;100472.80;;;19.80
69545;BMP180;56766;52.260;20.746;2022-07-23T04:28:58;100472.60;;;19.90
69545;BMP180;56766;52.260;20.746;2022-07-23T04:31:25;100473.20;;;20.10
69545;BMP180;56766;52.260;20.746;2022-07-23T04:33:52;100477.80;;;20.24
69545;BMP180;56766;52.260;20.746;2022-07-23T04:36:18;100474.00;;;20.50
69545;BMP180;56766;52.260;20.746;2022-07-23T04:38:45;100472.00;;;20.70
69545;BMP180;56766;52.260;20.746;2022-07-23T04:41:11;100468.40;;;21.16
69545;BMP180;56766;52.260;20.746;2022-07-23T04:43:38;100474.60;;;21.50
69545;BMP180;56766;52.260;20.746;2022-07-23T04:46:05;100476.20;;;21.90
69545;BMP180;56766;52.260;20.746;2022-07-23T04:48:32;100472.40;;;22.28
69545;BMP180;56766;52.260;20.746;2022-07-23T04:50:59;100477.00;;;22.60
69545;BMP180;56766;52.260;20.746;2022-07-23T04:53:25;100477.60;;;22.90
69545;BMP180;56766;52.260;20.746;2022-07-23T04:55:52;100472.40;;;23.22
69545;BMP180;56766;52.260;20.746;2022-07-23T04:58:18;100475.60;;;23.54
69545;BMP180;56766;52.260;20.746;2022-07-23T05:00:45;100472.60;;;23.80
69545;BMP180;56766;52.260;20.746;2022-07-23T05:03:12;100479.40;;;24.10
69545;BMP180;56766;52.260;20.746;2022-07-23T05:05:39;100474.80;;;24.30
69545;BMP180;56766;52.260;20.746;2022-07-23T05:08:05;100473.20;;;24.58
69545;BMP180;56766;52.260;20.746;2022-07-23T05:10:32;100478.60;;;24.70
69545;BMP180;56766;52.260;20.746;2022-07-23T05:12:59;100477.40;;;24.84
69545;BMP180;56766;52.260;20.746;2022-07-23T05:15:25;100466.20;;;25.10
69545;BMP180;56766;52.260;20.746;2022-07-23T05:17:52;100467.80;;;25.20
69545;BMP180;56766;52.260;20.746;2022-07-23T05:20:18;100468.20;;;25.30
69545;BMP180;56766;52.260;20.746;2022-07-23T05:22:45;100467.20;;;25.50
69545;BMP180;56766;52.260;20.746;2022-07-23T05:25:12;100464.00;;;25.50
69545;BMP180;56766;52.260;20.746;2022-07-23T05:27:38;100464.40;;;25.50
69545;BMP180;56766;52.260;20.746;2022-07-23T05:30:06;100461.40;;;25.52
69545;BMP180;56766;52.260;20.746;2022-07-23T05:32:33;100461.00;;;25.50
69545;BMP180;56766;52.260;20.746;2022-07-23T05:34:59;100457.80;;;25.50
69545;BMP180;56766;52.260;20.746;2022-07-23T05:37:26;100454.00;;;25.50
69545;BMP180;56766;52.260;20.746;2022-07-23T05:39:52;100447.80;;;25.50
69545;BMP180;56766;52.260;20.746;2022-07-23T05:42:19;100448.20;;;25.50
69545;BMP180;56766;52.260;20.746;2022-07-23T05:44:46;100442.80;;;25.50
69545;BMP180;56766;52.260;20.746;2022-07-23T05:47:12;100448.00;;;25.40
69545;BMP180;56766;52.260;20.746;2022-07-23T05:49:39;100448.00;;;25.42
69545;BMP180;56766;52.260;20.746;2022-07-23T05:52:07;100451.20;;;25.50
69545;BMP180;56766;52.260;20.746;2022-07-23T05:54:35;100453.40;;;25.50
69545;BMP180;56766;52.260;20.746;2022-07-23T05:57:03;100452.60;;;25.60
69545;BMP180;56766;52.260;20.746;2022-07-23T05:59:31;100461.20;;;25.70
69545;BMP180;56766;52.260;20.746;2022-07-23T06:01:57;100458.60;;;25.80
69545;BMP180;56766;52.260;20.746;2022-07-23T06:04:24;100457.60;;;25.86
69545;BMP180;56766;52.260;20.746;2022-07-23T06:06:51;100457.60;;;25.90
69545;BMP180;56766;52.260;20.746;2022-07-23T06:09:18;100456.60;;;26.00
69545;BMP180;56766;52.260;20.746;2022-07-23T06:11:44;100455.40;;;26.10
69545;BMP180;56766;52.260;20.746;2022-07-23T06:14:11;100458.60;;;26.20
69545;BMP180;56766;52.260;20.746;2022-07-23T06:16:38;100452.20;;;26.30
69545;BMP180;56766;52.260;20.746;2022-07-23T06:19:04;100451.80;;;26.32
69545;BMP180;56766;52.260;20.746;2022-07-23T06:21:31;100452.60;;;26.48
69545;BMP180;56766;52.260;20.746;2022-07-23T06:23:58;100457.00;;;26.60
69545;BMP180;56766;52.260;20.746;2022-07-23T06:26:24;100456.00;;;26.70
69545;BMP180;56766;52.260;20.746;2022-07-23T06:28:51;100457.60;;;26.72
69545;BMP180;56766;52.260;20.746;2022-07-23T06:31:18;100461.40;;;26.80
69545;BMP180;56766;52.260;20.746;2022-07-23T06:33:45;100458.60;;;26.80
69545;BMP180;56766;52.260;20.746;2022-07-23T06:36:11;100458.00;;;26.80
69545;BMP180;56766;52.260;20.746;2022-07-23T06:38:38;100463.00;;;26.80
69545;BMP180;56766;52.260;20.746;2022-07-23T06:41:04;100453.80;;;26.80
69545;BMP180;56766;52.260;20.746;2022-07-23T06:43:31;100456.20;;;26.78
69545;BMP180;56766;52.260;20.746;2022-07-23T06:45:58;100455.00;;;26.70
69545;BMP180;56766;52.260;20.746;2022-07-23T06:48:24;100448.40;;;26.70
69545;BMP180;56766;52.260;20.746;2022-07-23T06:50:51;100449.60;;;26.70
69545;BMP180;56766;52.260;20.746;2022-07-23T06:53:18;100445.60;;;26.70
69545;BMP180;56766;52.260;20.746;2022-07-23T06:55:45;100446.40;;;26.60
69545;BMP180;56766;52.260;20.746;2022-07-23T06:58:12;100446.40;;;26.60
69545;BMP180;56766;52.260;20.746;2022-07-23T07:00:40;100439.20;;;26.60
69545;BMP180;56766;52.260;20.746;2022-07-23T07:03:07;100438.60;;;26.60
69545;BMP180;56766;52.260;20.746;2022-07-23T07:05:34;100441.00;;;26.60
69545;BMP180;56766;52.260;20.746;2022-07-23T07:08:00;100444.60;;;26.60
69545;BMP180;56766;52.260;20.746;2022-07-23T07:10:27;100443.20;;;26.70
69545;BMP180;56766;52.260;20.746;2022-07-23T07:12:53;100436.60;;;26.80
69545;BMP180;56766;52.260;20.746;2022-07-23T07:15:20;100431.40;;;26.80
69545;BMP180;56766;52.260;20.746;2022-07-23T07:17:47;100435.20;;;26.90
69545;BMP180;56766;52.260;20.746;2022-07-23T07:20:14;100435.40;;;26.90
69545;BMP180;56766;52.260;20.746;2022-07-23T07:22:41;100431.40;;;27.00
69545;BMP180;56766;52.260;20.746;2022-07-23T07:25:08;100427.80;;;27.10
69545;BMP180;56766;52.260;20.746;2022-07-23T07:27:35;100421.80;;;27.10
69545;BMP180;56766;52.260;20.746;2022-07-23T07:30:04;100422.20;;;27.20
69545;BMP180;56766;52.260;20.746;2022-07-23T07:32:31;100420.20;;;27.30
69545;BMP180;56766;52.260;20.746;2022-07-23T07:34:59;100420.00;;;27.38
69545;BMP180;56766;52.260;20.746;2022-07-23T07:37:25;100428.20;;;27.40
69545;BMP180;56766;52.260;20.746;2022-07-23T07:39:52;100425.60;;;27.50
69545;BMP180;56766;52.260;20.746;2022-07-23T07:42:18;100422.60;;;27.54
69545;BMP180;56766;52.260;20.746;2022-07-23T07:44:45;100423.40;;;27.70
69545;BMP180;56766;52.260;20.746;2022-07-23T07:47:12;100422.20;;;27.70
69545;BMP180;56766;52.260;20.746;2022-07-23T07:49:40;100426.60;;;27.82
69545;BMP180;56766;52.260;20.746;2022-07-23T07:52:07;100431.20;;;28.00
69545;BMP180;56766;52.260;20.746;2022-07-23T07:54:34;100426.20;;;28.10
69545;BMP180;56766;52.260;20.746;2022-07-23T07:57:01;100432.60;;;28.30
69545;BMP180;56766;52.260;20.746;2022-07-23T07:59:28;100431.40;;;28.30
69545;BMP180;56766;52.260;20.746;2022-07-23T08:01:55;100438.60;;;28.40
69545;BMP180;56766;52.260;20.746;2022-07-23T08:04:21;100437.80;;;28.50
69545;BMP180;56766;52.260;20.746;2022-07-23T08:06:48;100442.00;;;28.60
69545;BMP180;56766;52.260;20.746;2022-07-23T08:09:14;100445.00;;;28.70
69545;BMP180;56766;52.260;20.746;2022-07-23T08:11:41;100442.40;;;28.90
69545;BMP180;56766;52.260;20.746;2022-07-23T08:14:08;100452.60;;;29.00
69545;BMP180;56766;52.260;20.746;2022-07-23T08:16:35;100448.40;;;29.10
69545;BMP180;56766;52.260;20.746;2022-07-23T08:19:02;100447.40;;;29.20
69545;BMP180;56766;52.260;20.746;2022-07-23T08:21:29;100446.00;;;29.24
69545;BMP180;56766;52.260;20.746;2022-07-23T08:23:55;100449.80;;;29.30
69545;BMP180;56766;52.260;20.746;2022-07-23T08:26:22;100443.80;;;29.30
69545;BMP180;56766;52.260;20.746;2022-07-23T08:28:48;100441.20;;;29.30
69545;BMP180;56766;52.260;20.746;2022-07-23T08:31:15;100446.00;;;29.38
69545;BMP180;56766;52.260;20.746;2022-07-23T08:33:44;100443.40;;;29.50
69545;BMP180;56766;52.260;20.746;2022-07-23T08:36:10;100445.20;;;29.56
69545;BMP180;56766;52.260;20.746;2022-07-23T08:38:37;100448.80;;;29.70
69545;BMP180;56766;52.260;20.746;2022-07-23T08:41:07;100449.00;;;29.90
69545;BMP180;56766;52.260;20.746;2022-07-23T08:43:34;100442.20;;;30.14
69545;BMP180;56766;52.260;20.746;2022-07-23T08:46:04;100445.20;;;30.30
69545;BMP180;56766;52.260;20.746;2022-07-23T08:48:34;100436.80;;;30.44
69545;BMP180;56766;52.260;20.746;2022-07-23T08:51:05;100437.00;;;30.56
69545;BMP180;56766;52.260;20.746;2022-07-23T08:53:34;100436.20;;;30.60
69545;BMP180;56766;52.260;20.746;2022-07-23T08:56:05;100432.40;;;30.50
69545;BMP180;56766;52.260;20.746;2022-07-23T08:58:32;100434.60;;;30.60
69545;BMP180;56766;52.260;20.746;2022-07-23T09:01:00;100441.00;;;30.72
69545;BMP180;56766;52.260;20.746;2022-07-23T09:03:31;100434.80;;;30.90
69545;BMP180;56766;52.260;20.746;2022-07-23T09:06:00;100439.60;;;31.04
69545;BMP180;56766;52.260;20.746;2022-07-23T09:08:42;100439.80;;;31.20
69545;BMP180;56766;52.260;20.746;2022-07-23T09:11:13;100436.80;;;31.30
69545;BMP180;56766;52.260;20.746;2022-07-23T09:13:52;100440.20;;;31.40
69545;BMP180;56766;52.260;20.746;2022-07-23T09:18:54;100430.40;;;31.60
69545;BMP180;56766;52.260;20.746;2022-07-23T09:21:26;100428.40;;;31.68
69545;BMP180;56766;52.260;20.746;2022-07-23T09:24:10;100431.60;;;31.80
69545;BMP180;56766;52.260;20.746;2022-07-23T09:26:47;100430.20;;;31.98
69545;BMP180;56766;52.260;20.746;2022-07-23T09:29:25;100430.80;;;32.10
69545;BMP180;56766;52.260;20.746;2022-07-23T09:31:59;100430.00;;;32.20
69545;BMP180;56766;52.260;20.746;2022-07-23T09:34:36;100424.20;;;32.30
69545;BMP180;56766;52.260;20.746;2022-07-23T09:37:17;100421.40;;;32.30
69545;BMP180;56766;52.260;20.746;2022-07-23T09:39:47;100421.00;;;32.30
69545;BMP180;56766;52.260;20.746;2022-07-23T09:42:25;100417.60;;;32.40
69545;BMP180;56766;52.260;20.746;2022-07-23T09:44:55;100414.80;;;32.30
69545;BMP180;56766;52.260;20.746;2022-07-23T09:47:26;100411.00;;;32.30
69545;BMP180;56766;52.260;20.746;2022-07-23T09:50:10;100410.20;;;32.40
69545;BMP180;56766;52.260;20.746;2022-07-23T09:52:49;100407.20;;;32.34
69545;BMP180;56766;52.260;20.746;2022-07-23T09:55:18;100401.60;;;32.10
69545;BMP180;56766;52.260;20.746;2022-07-23T09:57:46;100405.00;;;32.10
69545;BMP180;56766;52.260;20.746;2022-07-23T10:00:23;100405.20;;;32.10
69545;BMP180;56766;52.260;20.746;2022-07-23T10:02:52;100402.40;;;32.20
69545;BMP180;56766;52.260;20.746;2022-07-23T10:05:37;100399.80;;;32.20
69545;BMP180;56766;52.260;20.746;2022-07-23T10:08:11;100403.00;;;32.20
69545;BMP180;56766;52.260;20.746;2022-07-23T10:10:40;100402.40;;;32.40
69545;BMP180;56766;52.260;20.746;2022-07-23T10:13:09;100404.20;;;32.60
69545;BMP180;56766;52.260;20.746;2022-07-23T10:16:05;100406.80;;;32.90
69545;BMP180;56766;52.260;20.746;2022-07-23T10:18:34;100406.60;;;33.00
69545;BMP180;56766;52.260;20.746;2022-07-23T10:21:07;100407.20;;;33.00
69545;BMP180;56766;52.260;20.746;2022-07-23T10:23:51;100405.80;;;33.10
69545;BMP180;56766;52.260;20.746;2022-07-23T10:30:00;100401.40;;;33.50
69545;BMP180;56766;52.260;20.746;2022-07-23T10:32:58;100401.40;;;33.60
69545;BMP180;56766;52.260;20.746;2022-07-23T10:38:20;100390.20;;;33.58
69545;BMP180;56766;52.260;20.746;2022-07-23T10:41:02;100393.60;;;33.50
69545;BMP180;56766;52.260;20.746;2022-07-23T10:43:32;100393.80;;;33.50
69545;BMP180;56766;52.260;20.746;2022-07-23T10:46:23;100395.00;;;33.60
69545;BMP180;56766;52.260;20.746;2022-07-23T10:49:32;100393.40;;;33.42
69545;BMP180;56766;52.260;20.746;2022-07-23T10:57:50;100398.20;;;33.60
69545;BMP180;56766;52.260;20.746;2022-07-23T11:00:23;100390.40;;;33.80
69545;BMP180;56766;52.260;20.746;2022-07-23T11:02:54;100386.20;;;34.06
69545;BMP180;56766;52.260;20.746;2022-07-23T11:05:40;100388.40;;;34.20
69545;BMP180;56766;52.260;20.746;2022-07-23T11:10:42;100388.60;;;34.50
69545;BMP180;56766;52.260;20.746;2022-07-23T11:16:21;100395.20;;;34.50
69545;BMP180;56766;52.260;20.746;2022-07-23T11:26:56;100395.20;;;34.70
69545;BMP180;56766;52.260;20.746;2022-07-23T11:32:19;100388.60;;;35.08
69545;BMP180;56766;52.260;20.746;2022-07-23T11:34:52;100390.80;;;35.10
69545;BMP180;56766;52.260;20.746;2022-07-23T11:37:40;100389.20;;;35.14
69545;BMP180;56766;52.260;20.746;2022-07-23T11:40:11;100383.00;;;35.40
69545;BMP180;56766;52.260;20.746;2022-07-23T11:42:59;100383.00;;;35.60
69545;BMP180;56766;52.260;20.746;2022-07-23T11:45:40;100385.60;;;35.82
69545;BMP180;56766;52.260;20.746;2022-07-23T11:48:17;100381.20;;;36.06
69545;BMP180;56766;52.260;20.746;2022-07-23T11:50:44;100373.60;;;36.10
69545;BMP180;56766;52.260;20.746;2022-07-23T11:53:11;100370.00;;;36.00
69545;BMP180;56766;52.260;20.746;2022-07-23T11:55:38;100359.60;;;35.76
69545;BMP180;56766;52.260;20.746;2022-07-23T11:58:05;100359.80;;;35.60
69545;BMP180;56766;52.260;20.746;2022-07-23T12:00:33;100356.40;;;35.50
69545;BMP180;56766;52.260;20.746;2022-07-23T12:03:02;100354.60;;;35.28
69545;BMP180;56766;52.260;20.746;2022-07-23T12:05:35;100354.20;;;35.14
69545;BMP180;56766;52.260;20.746;2022-07-23T12:08:08;100352.00;;;34.90
69545;BMP180;56766;52.260;20.746;2022-07-23T12:10:40;100350.00;;;34.80
69545;BMP180;56766;52.260;20.746;2022-07-23T12:13:15;100346.20;;;34.80
69545;BMP180;56766;52.260;20.746;2022-07-23T12:15:49;100338.40;;;34.60
69545;BMP180;56766;52.260;20.746;2022-07-23T12:18:26;100332.00;;;34.54
69545;BMP180;56766;52.260;20.746;2022-07-23T12:21:03;100336.00;;;34.68
69545;BMP180;56766;52.260;20.746;2022-07-23T12:23:30;100335.80;;;34.80
69545;BMP180;56766;52.260;20.746;2022-07-23T12:26:02;100334.20;;;34.78
69545;BMP180;56766;52.260;20.746;2022-07-23T12:28:33;100335.00;;;34.70
69545;BMP180;56766;52.260;20.746;2022-07-23T12:31:01;100333.80;;;34.80
69545;BMP180;56766;52.260;20.746;2022-07-23T12:33:42;100326.60;;;34.94
69545;BMP180;56766;52.260;20.746;2022-07-23T12:36:10;100319.60;;;35.38
69545;BMP180;56766;52.260;20.746;2022-07-23T12:38:47;100313.60;;;35.80
69545;BMP180;56766;52.260;20.746;2022-07-23T12:41:16;100312.20;;;36.10
69545;BMP180;56766;52.260;20.746;2022-07-23T12:43:45;100309.20;;;36.30
69545;BMP180;56766;52.260;20.746;2022-07-23T12:46:16;100305.60;;;36.50
69545;BMP180;56766;52.260;20.746;2022-07-23T12:51:28;100297.80;;;36.30
69545;BMP180;56766;52.260;20.746;2022-07-23T12:54:07;100284.40;;;35.98
69545;BMP180;56766;52.260;20.746;2022-07-23T12:56:39;100283.60;;;35.70
69545;BMP180;56766;52.260;20.746;2022-07-23T12:59:13;100279.80;;;35.48
69545;BMP180;56766;52.260;20.746;2022-07-23T13:01:45;100277.00;;;35.44
69545;BMP180;56766;52.260;20.746;2022-07-23T13:04:22;100277.40;;;35.16
69545;BMP180;56766;52.260;20.746;2022-07-23T13:06:56;100275.40;;;34.90
69545;BMP180;56766;52.260;20.746;2022-07-23T13:09:33;100272.00;;;34.68
69545;BMP180;56766;52.260;20.746;2022-07-23T13:12:00;100274.20;;;34.70
69545;BMP180;56766;52.260;20.746;2022-07-23T13:14:28;100282.40;;;34.70
69545;BMP180;56766;52.260;20.746;2022-07-23T13:16:56;100288.40;;;34.80
69545;BMP180;56766;52.260;20.746;2022-07-23T13:19:23;100281.60;;;35.02
69545;BMP180;56766;52.260;20.746;2022-07-23T13:21:50;100275.20;;;35.34
69545;BMP180;56766;52.260;20.746;2022-07-23T13:24:17;100273.40;;;35.60
69545;BMP180;56766;52.260;20.746;2022-07-23T13:26:43;100273.40;;;35.70
69545;BMP180;56766;52.260;20.746;2022-07-23T13:29:10;100271.80;;;35.40
69545;BMP180;56766;52.260;20.746;2022-07-23T13:31:38;100275.00;;;35.10
69545;BMP180;56766;52.260;20.746;2022-07-23T13:34:06;100274.00;;;35.00
69545;BMP180;56766;52.260;20.746;2022-07-23T13:36:33;100275.00;;;34.90
69545;BMP180;56766;52.260;20.746;2022-07-23T13:38:59;100267.60;;;34.70
69545;BMP180;56766;52.260;20.746;2022-07-23T13:41:26;100271.00;;;34.48
69545;BMP180;56766;52.260;20.746;2022-07-23T13:43:53;100274.20;;;34.30
69545;BMP180;56766;52.260;20.746;2022-07-23T13:46:20;100264.40;;;34.10
69545;BMP180;56766;52.260;20.746;2022-07-23T13:48:47;100268.20;;;33.80
69545;BMP180;56766;52.260;20.746;2022-07-23T13:51:13;100270.60;;;33.52
69545;BMP180;56766;52.260;20.746;2022-07-23T13:53:40;100278.20;;;33.22
69545;BMP180;56766;52.260;20.746;2022-07-23T13:56:07;100279.40;;;32.90
69545;BMP180;56766;52.260;20.746;2022-07-23T13:58:52;100282.00;;;32.58
69545;BMP180;56766;52.260;20.746;2022-07-23T14:01:18;100279.80;;;32.20
69545;BMP180;56766;52.260;20.746;2022-07-23T14:03:45;100276.20;;;31.82
69545;BMP180;56766;52.260;20.746;2022-07-23T14:06:12;100272.60;;;31.50
69545;BMP180;56766;52.260;20.746;2022-07-23T14:08:38;100272.40;;;31.20
69545;BMP180;56766;52.260;20.746;2022-07-23T14:11:05;100267.60;;;30.88
69545;BMP180;56766;52.260;20.746;2022-07-23T14:13:32;100261.20;;;30.60
69545;BMP180;56766;52.260;20.746;2022-07-23T14:15:58;100271.60;;;30.40
69545;BMP180;56766;52.260;20.746;2022-07-23T14:18:25;100282.80;;;30.20
69545;BMP180;56766;52.260;20.746;2022-07-23T14:20:51;100319.40;;;30.00
69545;BMP180;56766;52.260;20.746;2022-07-23T14:23:18;100360.80;;;29.72
69545;BMP180;56766;52.260;20.746;2022-07-23T14:25:45;100386.20;;;28.70
69545;BMP180;56766;52.260;20.746;2022-07-23T14:28:11;100389.80;;;27.46